Time;durP1;ratioP1;P1;durP2;ratioP2;P2;SDS_P1;SDS_P2;PMS_P1;PMS_P2;Temp;Humidity;BMP_temperature;BMP_pressure;BME280_temperature;BME280_humidity;BME280_pressure;Samples;Min_cycle;Max_cycle;Signal;HPM_P1;HPM_P2
2021/10/12 00:00:17;;;;;;;;;;;11.30;96.00;;;;;;5055182;28;19909;-77
2021/10/12 00:02:43;;;;;;;;;;;11.30;96.00;;;;;;5055028;28;19904;-77
2021/10/12 00:05:08;;;;;;;;;;;11.30;96.00;;;;;;5036451;28;20042;-76
2021/10/12 00:07:34;;;;;;;;;;;11.30;95.90;;;;;;5055133;28;19951;-77
2021/10/12 00:09:59;;;;;;;;;;;11.30;95.90;;;;;;5054519;28;20350;-77
2021/10/12 00:12:25;;;;;;;;;;;11.30;95.90;;;;;;5055054;28;19904;-76
2021/10/12 00:14:50;;;;;;;;;;;11.30;95.90;;;;;;5054747;28;19956;-76
2021/10/12 00:17:16;;;;;;;;;;;11.30;95.90;;;;;;5055013;28;19904;-76
2021/10/12 00:19:41;;;;;;;;;;;11.20;96.00;;;;;;5054960;28;20415;-77
2021/10/12 00:22:07;;;;;;;;;;;11.20;96.30;;;;;;5054947;28;19908;-76
2021/10/12 00:24:33;;;;;;;;;;;11.20;96.00;;;;;;5054273;28;19905;-76
2021/10/12 00:26:58;;;;;;;;;;;11.20;96.10;;;;;;5054752;28;20280;-77
2021/10/12 00:29:23;;;;;;;;;;;11.20;96.00;;;;;;5046107;28;19920;-77
2021/10/12 00:31:49;;;;;;;;;;;11.30;96.00;;;;;;5054668;28;19909;-76
2021/10/12 00:34:14;;;;;;;;;;;11.30;95.90;;;;;;5054584;28;20008;-75
2021/10/12 00:36:40;;;;;;;;;;;11.30;95.90;;;;;;5054533;28;19928;-76
2021/10/12 00:39:05;;;;;;;;;;;11.30;95.90;;;;;;5053897;28;19952;-76
2021/10/12 00:41:31;;;;;;;;;;;11.30;95.80;;;;;;5054587;28;19912;-76
2021/10/12 00:43:56;;;;;;;;;;;11.30;95.80;;;;;;5054391;28;19948;-76
2021/10/12 00:46:22;;;;;;;;;;;11.30;95.80;;;;;;5054355;28;20346;-76
2021/10/12 00:48:47;;;;;;;;;;;11.30;95.80;;;;;;5054278;28;20408;-76
2021/10/12 00:51:12;;;;;;;;;;;11.20;95.90;;;;;;5054300;28;19911;-75
2021/10/12 00:53:38;;;;;;;;;;;11.20;95.90;;;;;;5053755;28;19936;-76
2021/10/12 00:56:04;;;;;;;;;;;11.20;95.90;;;;;;5054301;28;20011;-76
2021/10/12 00:58:29;;;;;;;;;;;11.20;96.00;;;;;;5053919;28;20296;-76
2021/10/12 01:00:55;;;;;;;;;;;11.20;96.00;;;;;;5054144;28;19954;-76
2021/10/12 01:03:20;;;;;;;;;;;11.20;96.00;;;;;;5054076;28;19959;-76
2021/10/12 01:05:46;;;;;;;;;;;11.20;96.10;;;;;;5053906;28;19909;-76
2021/10/12 01:08:11;;;;;;;;;;;11.20;96.30;;;;;;5053684;28;20008;-76
2021/10/12 01:10:37;;;;;;;;;;;11.20;96.40;;;;;;5053945;28;19908;-76
2021/10/12 01:13:02;;;;;;;;;;;11.20;96.50;;;;;;5053929;28;19905;-76
2021/10/12 01:15:29;;;;;;;;;;;11.20;96.60;;;;;;5053782;28;19913;-76
2021/10/12 01:17:54;;;;;;;;;;;11.20;96.70;;;;;;5053860;28;19955;-76
2021/10/12 01:20:20;;;;;;;;;;;11.20;96.80;;;;;;5053709;28;20362;-76
2021/10/12 01:22:46;;;;;;;;;;;11.20;96.70;;;;;;5053307;28;19905;-76
2021/10/12 01:25:13;;;;;;;;;;;11.20;96.80;;;;;;5053649;28;19905;-76
2021/10/12 01:27:38;;;;;;;;;;;11.20;96.80;;;;;;5053550;28;20058;-76
2021/10/12 01:30:05;;;;;;;;;;;11.10;96.80;;;;;;5053714;28;20385;-76
2021/10/12 01:32:31;;;;;;;;;;;11.10;96.90;;;;;;5053885;28;19944;-76
2021/10/12 01:35:00;;;;;;;;;;;11.10;96.90;;;;;;5052145;28;20006;-76
2021/10/12 01:37:27;;;;;;;;;;;11.20;97.00;;;;;;5053190;28;19905;-76
2021/10/12 01:39:52;;;;;;;;;;;11.20;96.90;;;;;;5053611;28;19905;-76
2021/10/12 01:42:18;;;;;;;;;;;11.20;96.90;;;;;;5035553;28;19988;-76
2021/10/12 01:44:44;;;;;;;;;;;11.20;96.90;;;;;;5053578;28;19999;-76
2021/10/12 01:47:10;;;;;;;;;;;11.20;96.90;;;;;;5053399;28;19911;-76
2021/10/12 01:49:35;;;;;;;;;;;11.10;96.90;;;;;;5053462;28;19905;-76
2021/10/12 01:52:01;;;;;;;;;;;11.10;97.00;;;;;;5053077;28;20000;-76
2021/10/12 01:54:26;;;;;;;;;;;11.10;97.00;;;;;;5053358;28;19919;-76
2021/10/12 01:56:53;;;;;;;;;;;11.10;97.00;;;;;;5053314;28;19905;-76
2021/10/12 01:59:19;;;;;;;;;;;11.10;97.00;;;;;;5053355;28;19904;-76
2021/10/12 02:01:44;;;;;;;;;;;11.10;97.00;;;;;;5053292;28;19916;-76
2021/10/12 02:04:10;;;;;;;;;;;11.10;97.00;;;;;;5053208;28;19927;-77
2021/10/12 02:06:36;;;;;;;;;;;11.10;97.10;;;;;;5052832;28;19987;-76
2021/10/12 02:09:01;;;;;;;;;;;11.10;97.00;;;;;;5053130;28;19904;-77
2021/10/12 02:11:27;;;;;;;;;;;11.10;97.10;;;;;;5053325;28;19911;-76
2021/10/12 02:13:52;;;;;;;;;;;11.10;97.00;;;;;;5053119;28;19913;-76
2021/10/12 02:16:18;;;;;;;;;;;11.10;97.00;;;;;;5053320;28;20003;-76
2021/10/12 02:18:43;;;;;;;;;;;11.10;97.10;;;;;;5053167;28;19948;-76
2021/10/12 02:21:09;;;;;;;;;;;11.20;97.00;;;;;;5052928;28;20357;-77
2021/10/12 02:23:34;;;;;;;;;;;11.20;97.00;;;;;;5070136;23;20406;-76
2021/10/12 02:26:00;;;;;;;;;;;11.20;97.00;;;;;;5092201;28;20380;-76
2021/10/12 02:28:25;;;;;;;;;;;11.20;97.00;;;;;;5096168;28;19904;-77
2021/10/12 02:30:50;;;;;;;;;;;11.20;96.90;;;;;;5097300;28;19904;-76
2021/10/12 02:33:16;;;;;;;;;;;11.10;96.90;;;;;;5079080;28;19904;-76
2021/10/12 02:35:41;;;;;;;;;;;11.10;96.90;;;;;;5096706;28;19915;-76
2021/10/12 02:38:07;;;;;;;;;;;11.10;96.90;;;;;;5097056;28;19931;-76
2021/10/12 02:40:32;;;;;;;;;;;11.10;97.00;;;;;;5096986;28;19904;-75
2021/10/12 02:42:58;;;;;;;;;;;11.10;97.00;;;;;;5097123;28;19904;-78
2021/10/12 02:45:24;;;;;;;;;;;11.10;96.90;;;;;;5097274;28;19904;-76
2021/10/12 02:47:49;;;;;;;;;;;11.10;97.00;;;;;;5097107;28;19904;-76
2021/10/12 02:50:14;;;;;;;;;;;11.10;97.00;;;;;;5096506;28;20006;-75
2021/10/12 02:52:40;;;;;;;;;;;11.10;97.00;;;;;;5096822;28;19904;-76
2021/10/12 02:55:06;;;;;;;;;;;11.00;97.00;;;;;;5096766;28;20368;-76
2021/10/12 02:57:34;;;;;;;;;;;11.00;97.00;;;;;;5096689;28;19908;-76
2021/10/12 03:00:00;;;;;;;;;;;11.00;97.00;;;;;;5096635;28;19904;-76
2021/10/12 03:02:26;;;;;;;;;;;11.00;97.00;;;;;;5096874;28;19904;-76
2021/10/12 03:04:51;;;;;;;;;;;11.00;97.00;;;;;;5096222;28;19957;-76
2021/10/12 03:07:17;;;;;;;;;;;11.00;96.90;;;;;;5096721;28;19904;-77
2021/10/12 03:09:42;;;;;;;;;;;11.00;96.90;;;;;;5096549;28;19950;-76
2021/10/12 03:12:09;;;;;;;;;;;11.00;96.90;;;;;;5095341;28;20261;-75
2021/10/12 03:14:35;;;;;;;;;;;10.90;96.90;;;;;;5096390;28;19920;-78
2021/10/12 03:17:03;;;;;;;;;;;11.00;97.00;;;;;;5096468;28;20383;-76
2021/10/12 03:19:29;;;;;;;;;;;11.00;96.90;;;;;;5095900;28;19908;-76
2021/10/12 03:21:59;;;;;;;;;;;11.00;96.90;;;;;;5096365;28;19912;-77
2021/10/12 03:24:24;;;;;;;;;;;10.90;96.90;;;;;;5094833;28;20021;-77
2021/10/12 03:26:50;;;;;;;;;;;10.90;96.90;;;;;;5096279;28;20377;-76
2021/10/12 03:29:15;;;;;;;;;;;10.90;96.90;;;;;;5096229;28;20284;-76
2021/10/12 03:31:40;;;;;;;;;;;10.80;96.90;;;;;;5096150;28;19946;-76
2021/10/12 03:34:06;;;;;;;;;;;10.90;97.00;;;;;;5095472;28;19911;-76
2021/10/12 03:36:31;;;;;;;;;;;10.80;96.90;;;;;;5096027;28;19940;-76
2021/10/12 03:38:57;;;;;;;;;;;10.80;97.00;;;;;;5094767;28;19910;-76
2021/10/12 03:41:22;;;;;;;;;;;10.80;96.90;;;;;;5096066;28;19983;-76
2021/10/12 03:43:48;;;;;;;;;;;10.80;97.00;;;;;;5095929;28;20357;-77
2021/10/12 03:46:13;;;;;;;;;;;10.80;96.90;;;;;;5095928;28;20429;-77
2021/10/12 03:48:39;;;;;;;;;;;10.80;97.00;;;;;;5094025;28;19991;-76
2021/10/12 03:51:10;;;;;;;;;;;10.90;97.00;;;;;;5095760;28;19904;-76
2021/10/12 03:53:35;;;;;;;;;;;10.90;96.90;;;;;;5095661;28;19908;-76
2021/10/12 03:56:01;;;;;;;;;;;10.90;96.90;;;;;;5095774;28;19912;-76
2021/10/12 03:58:26;;;;;;;;;;;10.90;96.80;;;;;;5077424;28;19955;-76
2021/10/12 04:00:52;;;;;;;;;;;10.90;96.70;;;;;;5095661;28;19904;-77
2021/10/12 04:03:18;;;;;;;;;;;10.90;96.70;;;;;;5095143;28;19904;-75
2021/10/12 04:05:43;;;;;;;;;;;10.90;96.70;;;;;;5095472;28;20453;-77
2021/10/12 04:08:08;;;;;;;;;;;10.90;96.70;;;;;;5094171;28;19908;-77
2021/10/12 04:10:34;;;;;;;;;;;10.90;96.70;;;;;;5095471;28;20356;-77
2021/10/12 04:13:01;;;;;;;;;;;11.00;96.70;;;;;;5095344;28;20406;-76
2021/10/12 04:15:30;;;;;;;;;;;11.00;96.70;;;;;;5095290;28;19974;-76
2021/10/12 04:17:55;;;;;;;;;;;11.00;96.60;;;;;;5076616;28;19904;-75
2021/10/12 04:20:24;;;;;;;;;;;11.00;96.70;;;;;;5095358;28;19965;-75
2021/10/12 04:22:50;;;;;;;;;;;11.00;96.70;;;;;;5094871;28;19908;-76
2021/10/12 04:25:15;;;;;;;;;;;10.90;96.60;;;;;;5095126;28;19904;-77
2021/10/12 04:27:41;;;;;;;;;;;10.90;96.70;;;;;;5077142;28;20268;-77
2021/10/12 04:30:07;;;;;;;;;;;10.90;96.70;;;;;;5093697;28;20253;-76
2021/10/12 04:32:32;;;;;;;;;;;10.90;96.70;;;;;;5094455;28;20413;-76
2021/10/12 04:34:57;;;;;;;;;;;10.90;96.70;;;;;;5076706;28;19912;-76
2021/10/12 04:37:23;;;;;;;;;;;11.00;96.70;;;;;;5094851;28;19915;-76
2021/10/12 04:39:49;;;;;;;;;;;11.00;96.70;;;;;;5094883;28;19908;-77
2021/10/12 04:42:15;;;;;;;;;;;11.00;96.70;;;;;;5076522;28;19911;-75
2021/10/12 04:44:41;;;;;;;;;;;11.00;96.60;;;;;;5076567;28;19904;-76
2021/10/12 04:47:08;;;;;;;;;;;11.00;96.70;;;;;;5094308;28;19907;-76
2021/10/12 04:49:33;;;;;;;;;;;11.00;96.70;;;;;;5094409;28;19904;-75
2021/10/12 04:51:59;;;;;;;;;;;11.00;96.70;;;;;;5094527;28;20242;-76
2021/10/12 04:54:24;;;;;;;;;;;11.00;96.70;;;;;;5076354;28;19918;-76
2021/10/12 04:56:50;;;;;;;;;;;11.00;96.60;;;;;;5094573;28;19904;-75
2021/10/12 04:59:17;;;;;;;;;;;11.00;96.70;;;;;;5094210;28;19904;-76
2021/10/12 05:01:43;;;;;;;;;;;11.00;96.70;;;;;;5094483;28;19910;-77
2021/10/12 05:04:08;;;;;;;;;;;11.10;96.70;;;;;;5094253;28;20271;-75
2021/10/12 05:06:34;;;;;;;;;;;11.00;96.60;;;;;;5094368;28;20340;-76
2021/10/12 05:08:59;;;;;;;;;;;11.00;96.60;;;;;;5094100;28;19948;-75
2021/10/12 05:11:25;;;;;;;;;;;11.00;96.70;;;;;;5094298;28;19904;-76
2021/10/12 05:13:51;;;;;;;;;;;11.10;96.60;;;;;;5093712;28;20356;-74
2021/10/12 05:16:19;;;;;;;;;;;11.00;96.60;;;;;;5094189;28;19908;-75
2021/10/12 05:18:46;;;;;;;;;;;11.00;96.70;;;;;;5092927;28;19911;-76
2021/10/12 05:21:12;;;;;;;;;;;11.00;96.70;;;;;;5094147;28;19904;-79
2021/10/12 05:23:37;;;;;;;;;;;11.00;96.70;;;;;;5093832;28;19916;-78
2021/10/12 05:26:04;;;;;;;;;;;11.00;96.70;;;;;;5094000;28;19908;-78
2021/10/12 05:28:30;;;;;;;;;;;11.10;96.70;;;;;;5092411;28;20349;-77
2021/10/12 05:30:55;;;;;;;;;;;11.00;96.70;;;;;;5094174;28;19910;-78
2021/10/12 05:33:21;;;;;;;;;;;11.00;96.70;;;;;;5093742;28;19957;-78
2021/10/12 05:35:47;;;;;;;;;;;11.00;96.70;;;;;;5093915;28;19944;-79
2021/10/12 05:38:13;;;;;;;;;;;11.00;96.70;;;;;;5093800;28;19995;-80
2021/10/12 05:40:39;;;;;;;;;;;11.10;96.70;;;;;;5093820;28;20260;-78
2021/10/12 05:43:04;;;;;;;;;;;11.10;96.70;;;;;;5093411;28;20352;-78
2021/10/12 05:45:30;;;;;;;;;;;11.10;96.70;;;;;;5093802;28;20284;-79
2021/10/12 05:47:55;;;;;;;;;;;11.10;96.70;;;;;;5075677;28;19951;-79
2021/10/12 05:50:21;;;;;;;;;;;11.10;97.00;;;;;;5092500;28;19956;-78
2021/10/12 05:52:59;;;;;;;;;;;11.10;96.70;;;;;;5075711;28;19962;-78
2021/10/12 05:55:51;;;;;;;;;;;11.20;96.70;;;;;;5093434;28;19919;-77
2021/10/12 05:58:13;;;;;;;;;;;11.20;96.60;;;;;;5092944;28;19908;-78
2021/10/12 06:00:39;;;;;;;;;;;11.20;96.60;;;;;;5092395;28;20299;-79
2021/10/12 06:03:04;;;;;;;;;;;11.30;96.60;;;;;;5096084;28;19904;-79
2021/10/12 06:05:29;;;;;;;;;;;11.20;96.50;;;;;;5097916;28;19911;-80
2021/10/12 06:07:55;;;;;;;;;;;11.30;96.50;;;;;;5097643;28;20271;-74
2021/10/12 06:10:21;;;;;;;;;;;11.30;96.50;;;;;;5079597;28;20332;-73
2021/10/12 06:12:46;;;;;;;;;;;11.30;96.60;;;;;;5097206;28;20268;-73
2021/10/12 06:15:12;;;;;;;;;;;11.30;96.60;;;;;;5097518;28;19912;-73
2021/10/12 06:17:37;;;;;;;;;;;11.30;96.60;;;;;;5097489;28;19911;-74
2021/10/12 06:20:03;;;;;;;;;;;11.30;96.50;;;;;;5097522;28;19930;-73
2021/10/12 06:22:28;;;;;;;;;;;11.30;96.60;;;;;;5097336;28;20327;-74
2021/10/12 06:24:54;;;;;;;;;;;11.40;96.60;;;;;;5096140;28;19912;-73
2021/10/12 06:27:20;;;;;;;;;;;11.40;96.50;;;;;;5096954;28;20240;-74
2021/10/12 06:29:46;;;;;;;;;;;11.40;96.50;;;;;;5078821;28;19903;-73
2021/10/12 06:32:11;;;;;;;;;;;11.50;96.50;;;;;;5097153;28;19999;-73
2021/10/12 06:34:37;;;;;;;;;;;11.50;96.50;;;;;;5097051;28;19915;-73
2021/10/12 06:37:02;;;;;;;;;;;11.50;96.40;;;;;;5097243;28;19911;-73
2021/10/12 06:39:28;;;;;;;;;;;11.50;96.40;;;;;;5078958;28;19911;-74
2021/10/12 06:41:53;;;;;;;;;;;11.50;96.40;;;;;;5096423;28;19904;-74
2021/10/12 06:44:18;;;;;;;;;;;11.50;96.40;;;;;;5095639;28;19914;-73
2021/10/12 06:46:44;;;;;;;;;;;11.50;96.40;;;;;;5095804;28;19910;-73
2021/10/12 06:49:10;;;;;;;;;;;11.50;96.40;;;;;;5097104;28;19904;-74
2021/10/12 06:51:35;;;;;;;;;;;11.60;96.50;;;;;;5096780;28;19911;-73
2021/10/12 06:54:01;;;;;;;;;;;11.60;96.50;;;;;;5096753;28;20014;-73
2021/10/12 06:56:26;;;;;;;;;;;11.70;96.40;;;;;;5096400;28;19904;-74
2021/10/12 06:58:52;;;;;;;;;;;11.70;96.40;;;;;;5096779;28;19958;-74
2021/10/12 07:01:17;;;;;;;;;;;11.70;96.30;;;;;;5096760;28;19904;-73
2021/10/12 07:03:43;;;;;;;;;;;11.80;96.30;;;;;;5096666;28;19970;-73
2021/10/12 07:06:08;;;;;;;;;;;11.90;96.30;;;;;;5096523;28;19908;-73
2021/10/12 07:08:33;;;;;;;;;;;11.90;96.20;;;;;;5096448;28;19910;-73
2021/10/12 07:10:59;;;;;;;;;;;11.90;96.10;;;;;;5096171;28;19915;-73
2021/10/12 07:13:29;;;;;;;;;;;11.90;96.20;;;;;;5096178;28;20002;-75
2021/10/12 07:15:55;;;;;;;;;;;11.90;96.20;;;;;;5096498;28;20345;-74
2021/10/12 07:18:21;;;;;;;;;;;11.90;96.20;;;;;;5078353;28;19904;-73
2021/10/12 07:20:46;;;;;;;;;;;11.90;96.30;;;;;;5078218;28;20413;-73
2021/10/12 07:23:12;;;;;;;;;;;11.90;96.40;;;;;;5096128;28;19919;-75
2021/10/12 07:25:37;;;;;;;;;;;11.90;96.30;;;;;;5095840;28;19904;-74
2021/10/12 07:28:03;;;;;;;;;;;12.00;96.30;;;;;;5096224;28;19939;-73
2021/10/12 07:30:28;;;;;;;;;;;12.00;96.30;;;;;;5077996;28;19911;-74
2021/10/12 07:32:53;;;;;;;;;;;11.90;96.30;;;;;;5078082;28;19995;-74
2021/10/12 07:35:19;;;;;;;;;;;11.90;96.50;;;;;;5095958;28;20325;-74
2021/10/12 07:37:44;;;;;;;;;;;11.90;96.50;;;;;;5095988;28;19904;-74
2021/10/12 07:40:10;;;;;;;;;;;11.90;96.50;;;;;;5095391;28;19908;-74
2021/10/12 07:42:36;;;;;;;;;;;11.90;96.50;;;;;;5095893;28;20041;-74
2021/10/12 07:45:02;;;;;;;;;;;12.00;96.50;;;;;;5095830;28;19937;-73
2021/10/12 07:47:27;;;;;;;;;;;12.10;96.50;;;;;;5095762;28;20269;-73
2021/10/12 07:49:54;;;;;;;;;;;12.10;96.50;;;;;;5095699;28;19911;-74
2021/10/12 07:52:19;;;;;;;;;;;12.10;96.40;;;;;;5094595;28;20372;-74
2021/10/12 07:54:46;;;;;;;;;;;12.10;96.40;;;;;;5095165;28;19948;-72
2021/10/12 07:57:13;;;;;;;;;;;12.20;96.40;;;;;;5095601;28;19904;-74
2021/10/12 07:59:39;;;;;;;;;;;12.20;96.50;;;;;;5095687;28;20441;-73
2021/10/12 08:02:06;;;;;;;;;;;12.20;96.40;;;;;;5095524;28;19904;-74
2021/10/12 08:04:31;;;;;;;;;;;12.20;96.40;;;;;;5095693;28;19912;-73
2021/10/12 08:06:57;;;;;;;;;;;12.20;96.30;;;;;;5095359;28;19912;-73
2021/10/12 08:09:22;;;;;;;;;;;12.20;96.40;;;;;;5095049;28;19904;-74
2021/10/12 08:11:48;;;;;;;;;;;12.20;96.50;;;;;;5095368;28;19904;-74
2021/10/12 08:14:17;;;;;;;;;;;12.20;96.50;;;;;;5095214;28;19916;-75
2021/10/12 08:16:44;;;;;;;;;;;12.20;96.50;;;;;;5095348;28;19994;-74
2021/10/12 08:19:10;;;;;;;;;;;12.20;96.50;;;;;;5076879;28;19969;-73
2021/10/12 08:21:35;;;;;;;;;;;12.20;96.60;;;;;;5095189;28;19904;-74
2021/10/12 08:24:01;;;;;;;;;;;12.20;96.70;;;;;;5094446;28;19962;-75
2021/10/12 08:26:27;;;;;;;;;;;12.30;96.70;;;;;;5076177;28;19911;-74
2021/10/12 08:28:53;;;;;;;;;;;12.20;96.60;;;;;;5094895;28;19904;-73
2021/10/12 08:31:19;;;;;;;;;;;12.20;96.70;;;;;;5094894;28;19904;-75
2021/10/12 08:33:45;;;;;;;;;;;12.20;96.80;;;;;;5094981;28;19904;-73
2021/10/12 08:36:11;;;;;;;;;;;12.20;96.80;;;;;;5094908;28;19914;-76
2021/10/12 08:38:40;;;;;;;;;;;12.20;96.80;;;;;;5076048;28;19947;-74
2021/10/12 08:41:06;;;;;;;;;;;12.20;96.80;;;;;;5094719;28;19908;-74
2021/10/12 08:43:35;;;;;;;;;;;12.20;96.80;;;;;;5076541;28;19970;-74
2021/10/12 08:46:01;;;;;;;;;;;12.10;96.80;;;;;;5094784;28;19973;-74
2021/10/12 08:48:27;;;;;;;;;;;12.10;96.80;;;;;;5094702;28;20357;-74
2021/10/12 08:50:53;;;;;;;;;;;12.10;96.90;;;;;;5094699;28;19904;-74
2021/10/12 08:53:18;;;;;;;;;;;12.10;96.80;;;;;;5093972;28;19907;-76
2021/10/12 08:55:44;;;;;;;;;;;12.10;96.80;;;;;;5094332;28;19923;-74
2021/10/12 08:58:11;;;;;;;;;;;12.10;96.80;;;;;;5094539;28;19916;-75
2021/10/12 09:00:37;;;;;;;;;;;12.10;96.80;;;;;;5094497;28;19911;-75
2021/10/12 09:05:54;;;;;;;;;;;12.10;97.10;;;;;;5094326;28;19950;-77
2021/10/12 09:08:23;;;;;;;;;;;12.10;97.10;;;;;;5094174;28;19908;-76
2021/10/12 09:10:48;;;;;;;;;;;12.10;97.10;;;;;;5094253;28;19958;-75
2021/10/12 09:13:14;;;;;;;;;;;12.10;97.30;;;;;;5094278;28;19904;-74
2021/10/12 09:15:39;;;;;;;;;;;12.10;97.30;;;;;;5094093;28;19912;-74
2021/10/12 09:18:05;;;;;;;;;;;12.10;97.30;;;;;;5094335;28;19911;-75
2021/10/12 09:20:30;;;;;;;;;;;12.10;97.30;;;;;;5075444;28;19947;-75
2021/10/12 09:23:03;;;;;;;;;;;12.20;97.30;;;;;;5093983;28;19968;-75
2021/10/12 09:25:36;;;;;;;;;;;12.30;97.30;;;;;;5094016;28;19912;-75
2021/10/12 09:28:01;;;;;;;;;;;12.40;97.20;;;;;;5094011;28;20371;-74
2021/10/12 09:30:28;;;;;;;;;;;12.40;97.20;;;;;;5092576;28;19951;-74
2021/10/12 09:33:12;;;;;;;;;;;12.50;97.30;;;;;;5094010;28;19908;-73
2021/10/12 09:35:37;;;;;;;;;;;12.60;97.20;;;;;;5093618;28;20459;-74
2021/10/12 09:38:04;;;;;;;;;;;12.70;97.20;;;;;;5093869;28;19950;-74
2021/10/12 09:40:30;;;;;;;;;;;12.80;97.20;;;;;;5093941;28;19998;-74
2021/10/12 09:42:56;;;;;;;;;;;12.80;97.20;;;;;;5093935;28;20012;-73
2021/10/12 09:45:41;;;;;;;;;;;12.80;97.10;;;;;;5093818;28;19911;-73
2021/10/12 09:48:25;;;;;;;;;;;12.90;97.20;;;;;;5075785;28;20030;-74
2021/10/12 09:51:05;;;;;;;;;;;12.90;97.20;;;;;;5093460;28;19904;-73
2021/10/12 09:53:31;;;;;;;;;;;12.90;97.20;;;;;;5093557;28;20049;-73
2021/10/12 09:56:00;;;;;;;;;;;13.00;97.10;;;;;;5093654;28;19998;-75
2021/10/12 09:58:29;;;;;;;;;;;13.00;97.10;;;;;;5093753;28;20340;-73
2021/10/12 10:00:55;;;;;;;;;;;13.10;97.20;;;;;;5093723;28;19912;-74
2021/10/12 10:03:20;;;;;;;;;;;13.10;97.10;;;;;;5093552;28;19904;-74
2021/10/12 10:05:46;;;;;;;;;;;13.10;97.10;;;;;;5093090;28;19904;-73
2021/10/12 10:08:12;;;;;;;;;;;13.20;97.20;;;;;;5093669;28;19904;-73
2021/10/12 10:10:38;;;;;;;;;;;13.30;97.20;;;;;;5093622;28;19908;-73
2021/10/12 10:13:03;;;;;;;;;;;13.40;97.20;;;;;;5093599;28;19904;-74
2021/10/12 10:15:29;;;;;;;;;;;13.40;97.10;;;;;;5093487;28;20006;-74
2021/10/12 10:17:56;;;;;;;;;;;13.40;97.00;;;;;;5093578;28;20357;-74
2021/10/12 10:20:21;;;;;;;;;;;13.30;97.10;;;;;;5093065;28;19905;-74
2021/10/12 10:22:49;;;;;;;;;;;13.30;97.20;;;;;;5092152;28;19915;-74
2021/10/12 10:25:21;;;;;;;;;;;13.40;97.20;;;;;;5093406;28;20364;-73
2021/10/12 10:27:47;;;;;;;;;;;13.40;97.10;;;;;;5093399;28;19942;-73
2021/10/12 10:30:20;;;;;;;;;;;13.40;97.10;;;;;;5093515;28;20268;-73
2021/10/12 10:32:49;;;;;;;;;;;13.30;97.10;;;;;;5092949;28;19912;-76
2021/10/12 10:35:14;;;;;;;;;;;13.40;97.10;;;;;;5093601;28;19959;-73
2021/10/12 10:37:40;;;;;;;;;;;13.40;97.20;;;;;;5093330;28;19962;-72
2021/10/12 10:40:06;;;;;;;;;;;13.50;97.10;;;;;;5093377;28;19908;-73
2021/10/12 10:42:41;;;;;;;;;;;13.50;97.10;;;;;;5093171;28;20279;-73
2021/10/12 10:45:07;;;;;;;;;;;13.50;97.10;;;;;;5093234;28;20380;-74
2021/10/12 10:47:45;;;;;;;;;;;13.40;97.00;;;;;;5092819;28;19908;-74
2021/10/12 10:50:10;;;;;;;;;;;13.40;97.10;;;;;;5095410;28;19908;-73
2021/10/12 10:52:46;;;;;;;;;;;13.40;97.10;;;;;;5096920;28;19998;-74
2021/10/12 10:55:21;;;;;;;;;;;13.40;97.10;;;;;;5096869;28;19965;-73
2021/10/12 10:58:06;;;;;;;;;;;13.40;97.10;;;;;;5096814;28;19904;-73
2021/10/12 11:00:37;;;;;;;;;;;13.50;97.20;;;;;;5096639;28;19927;-75
2021/10/12 11:03:03;;;;;;;;;;;13.60;97.10;;;;;;5096204;28;20353;-74
2021/10/12 11:05:28;;;;;;;;;;;13.70;97.00;;;;;;5096629;28;19911;-74
2021/10/12 11:08:05;;;;;;;;;;;13.90;97.00;;;;;;5096720;28;19904;-73
2021/10/12 11:10:31;;;;;;;;;;;14.00;96.80;;;;;;5096527;28;19933;-74
2021/10/12 11:12:56;;;;;;;;;;;14.00;96.80;;;;;;5096555;28;20406;-73
2021/10/12 11:15:21;;;;;;;;;;;14.10;97.00;;;;;;5096368;28;19912;-73
2021/10/12 11:18:02;;;;;;;;;;;14.10;96.90;;;;;;5095907;28;19904;-73
2021/10/12 11:20:37;;;;;;;;;;;14.10;96.90;;;;;;5096443;28;19920;-73
2021/10/12 11:23:04;;;;;;;;;;;14.10;96.90;;;;;;5096136;28;19998;-74
2021/10/12 11:25:29;;;;;;;;;;;14.20;97.10;;;;;;5096124;28;19974;-73
2021/10/12 11:28:04;;;;;;;;;;;14.20;96.90;;;;;;5096235;28;20357;-72
2021/10/12 11:30:32;;;;;;;;;;;14.20;96.90;;;;;;5096273;28;19915;-74
2021/10/12 11:32:57;;;;;;;;;;;14.10;96.80;;;;;;5095710;28;19926;-73
2021/10/12 11:35:31;;;;;;;;;;;14.10;96.90;;;;;;5095934;28;20360;-72
2021/10/12 11:37:59;;;;;;;;;;;14.30;97.00;;;;;;5094776;28;19908;-73
2021/10/12 11:40:25;;;;;;;;;;;14.40;96.80;;;;;;5096071;28;19904;-72
2021/10/12 11:42:52;;;;;;;;;;;14.30;96.60;;;;;;5095852;28;19904;-73
2021/10/12 11:45:17;;;;;;;;;;;14.20;96.60;;;;;;5095500;28;19904;-74
2021/10/12 11:47:43;;;;;;;;;;;14.10;96.70;;;;;;5095716;28;19911;-72
2021/10/12 11:50:13;;;;;;;;;;;14.10;96.80;;;;;;5095845;28;19911;-73
2021/10/12 11:52:38;;;;;;;;;;;14.10;96.90;;;;;;5095658;28;19971;-72
2021/10/12 11:55:05;;;;;;;;;;;14.30;96.80;;;;;;5095715;28;20352;-73
2021/10/12 11:57:30;;;;;;;;;;;14.30;96.60;;;;;;5095617;28;19919;-73
2021/10/12 11:59:56;;;;;;;;;;;14.20;96.60;;;;;;5094063;28;19904;-73
2021/10/12 12:02:21;;;;;;;;;;;14.20;96.60;;;;;;5095585;28;19910;-74
2021/10/12 12:04:47;;;;;;;;;;;14.20;96.70;;;;;;5095466;28;19910;-73
2021/10/12 12:07:13;;;;;;;;;;;14.30;96.70;;;;;;5095463;28;20322;-73
2021/10/12 12:09:40;;;;;;;;;;;14.40;96.60;;;;;;5095364;28;19904;-73
2021/10/12 12:12:06;;;;;;;;;;;14.40;96.50;;;;;;5095135;28;20012;-73
2021/10/12 12:14:31;;;;;;;;;;;14.40;96.50;;;;;;5094846;28;19912;-73
2021/10/12 12:17:07;;;;;;;;;;;14.40;96.50;;;;;;5095214;28;20311;-72
2021/10/12 12:19:39;;;;;;;;;;;14.40;96.50;;;;;;5095230;28;20258;-73
2021/10/12 12:22:15;;;;;;;;;;;14.50;96.60;;;;;;5095141;28;19911;-73
2021/10/12 12:24:51;;;;;;;;;;;14.70;96.50;;;;;;5095114;28;19915;-72
2021/10/12 12:27:16;;;;;;;;;;;14.80;96.40;;;;;;5095224;28;19904;-73
2021/10/12 12:29:42;;;;;;;;;;;14.80;96.20;;;;;;5094617;28;19998;-73
2021/10/12 12:32:11;;;;;;;;;;;14.70;96.20;;;;;;5094790;28;19904;-73
2021/10/12 12:34:38;;;;;;;;;;;14.70;96.30;;;;;;5094913;28;19970;-74
2021/10/12 12:37:07;;;;;;;;;;;14.80;96.40;;;;;;5094843;28;19951;-74
2021/10/12 12:39:42;;;;;;;;;;;14.80;96.20;;;;;;5094824;28;19904;-73
2021/10/12 12:42:27;;;;;;;;;;;14.60;96.00;;;;;;5094746;28;19911;-75
2021/10/12 12:45:05;;;;;;;;;;;14.40;96.00;;;;;;5076153;28;19912;-73
2021/10/12 12:47:31;;;;;;;;;;;14.20;96.10;;;;;;5094655;28;19957;-74
2021/10/12 12:50:12;;;;;;;;;;;14.20;96.20;;;;;;5094541;28;19904;-74
2021/10/12 12:52:38;;;;;;;;;;;14.20;96.30;;;;;;5094717;28;19910;-75
2021/10/12 12:55:04;;;;;;;;;;;14.20;96.30;;;;;;5094271;28;19920;-74
2021/10/12 12:57:29;;;;;;;;;;;14.10;96.10;;;;;;5094420;28;19911;-74
2021/10/12 12:59:57;;;;;;;;;;;14.10;96.40;;;;;;5094185;28;19908;-73
2021/10/12 13:02:23;;;;;;;;;;;14.50;96.70;;;;;;5094476;28;19903;-72
2021/10/12 13:04:49;;;;;;;;;;;14.80;96.50;;;;;;5094284;28;19911;-74
2021/10/12 13:07:16;;;;;;;;;;;15.20;96.30;;;;;;5094401;28;19935;-74
2021/10/12 13:09:43;;;;;;;;;;;15.60;95.90;;;;;;5094247;28;20391;-74
2021/10/12 13:12:09;;;;;;;;;;;15.80;95.50;;;;;;5093974;28;19957;-75
2021/10/12 13:14:35;;;;;;;;;;;16.00;95.30;;;;;;5075658;28;19919;-75
2021/10/12 13:17:01;;;;;;;;;;;16.20;95.10;;;;;;5094075;28;19904;-72
2021/10/12 13:19:27;;;;;;;;;;;16.10;94.80;;;;;;5094118;28;20414;-78
2021/10/12 13:21:53;;;;;;;;;;;15.90;95.00;;;;;;5093998;28;19939;-76
2021/10/12 13:24:18;;;;;;;;;;;15.60;95.10;;;;;;5093765;28;20403;-74
2021/10/12 13:26:43;;;;;;;;;;;15.30;95.00;;;;;;5094206;28;20352;-74
2021/10/12 13:29:09;;;;;;;;;;;14.90;95.10;;;;;;5093480;28;20351;-76
2021/10/12 13:31:36;;;;;;;;;;;14.70;95.50;;;;;;5093966;28;19904;-76
2021/10/12 13:34:03;;;;;;;;;;;14.70;95.70;;;;;;5094017;28;19907;-76
2021/10/12 13:36:28;;;;;;;;;;;14.80;95.70;;;;;;5093863;28;19904;-76
2021/10/12 13:38:54;;;;;;;;;;;14.90;95.70;;;;;;5093939;28;20410;-75
2021/10/12 13:41:19;;;;;;;;;;;15.00;95.50;;;;;;5093336;28;19914;-78
2021/10/12 13:43:45;;;;;;;;;;;15.10;95.50;;;;;;5093973;28;19904;-74
2021/10/12 13:46:11;;;;;;;;;;;15.30;95.50;;;;;;5093963;28;20353;-76
2021/10/12 13:48:36;;;;;;;;;;;15.60;95.40;;;;;;5093972;28;19949;-76
2021/10/12 13:51:05;;;;;;;;;;;15.90;95.30;;;;;;5093892;28;19904;-77
2021/10/12 13:53:31;;;;;;;;;;;15.90;94.80;;;;;;5093745;28;19904;-77
2021/10/12 13:55:58;;;;;;;;;;;15.60;94.80;;;;;;5093347;28;19919;-76
2021/10/12 13:58:24;;;;;;;;;;;15.20;94.90;;;;;;5093753;28;19904;-76
2021/10/12 14:00:49;;;;;;;;;;;14.90;95.20;;;;;;5093760;28;19923;-76
2021/10/12 14:03:15;;;;;;;;;;;14.70;95.40;;;;;;5093613;28;19911;-77
2021/10/12 14:05:41;;;;;;;;;;;14.80;95.50;;;;;;5093660;28;19912;-76
2021/10/12 14:08:06;;;;;;;;;;;15.00;95.50;;;;;;5093667;28;19904;-76
2021/10/12 14:10:32;;;;;;;;;;;15.10;95.40;;;;;;5093150;28;19904;-74
2021/10/12 14:12:58;;;;;;;;;;;15.20;95.20;;;;;;5093678;28;19919;-76
2021/10/12 14:15:23;;;;;;;;;;;15.10;95.10;;;;;;5093382;28;19912;-77